createdAt,value
2023-05-05T00:00:17.407Z,600.00
2023-05-05T00:01:17.462Z,599.00
2023-05-05T00:02:17.587Z,598.00
2023-05-05T00:03:17.666Z,599.00
2023-05-05T00:04:17.797Z,600.00
2023-05-05T00:05:17.692Z,600.00
2023-05-05T00:06:17.757Z,599.00
2023-05-05T00:07:17.849Z,599.00
2023-05-05T00:08:17.877Z,600.00
2023-05-05T00:09:17.956Z,602.00
2023-05-05T00:10:18.017Z,602.00
2023-05-05T00:11:18.083Z,602.00
2023-05-05T00:12:18.113Z,603.00
2023-05-05T00:13:18.232Z,601.00
2023-05-05T00:14:18.243Z,602.00
2023-05-05T00:15:18.316Z,602.00
2023-05-05T00:16:18.387Z,600.00
2023-05-05T00:17:18.450Z,601.00
2023-05-05T00:18:18.527Z,601.00
2023-05-05T00:19:18.594Z,600.00
2023-05-05T00:20:18.622Z,599.00
2023-05-05T00:21:18.691Z,597.00
2023-05-05T00:22:18.754Z,597.00
2023-05-05T00:23:18.796Z,598.00
2023-05-05T00:24:18.873Z,599.00
2023-05-05T00:25:18.912Z,597.00
2023-05-05T00:26:18.982Z,597.00
2023-05-05T00:27:19.024Z,599.00
2023-05-05T00:28:19.122Z,599.00
2023-05-05T00:29:19.167Z,598.00
2023-05-05T00:30:19.224Z,598.00
2023-05-05T00:31:19.275Z,598.00
2023-05-05T00:32:19.332Z,601.00
2023-05-05T00:33:19.453Z,600.00
2023-05-05T00:34:19.468Z,600.00
2023-05-05T00:35:19.505Z,600.00
2023-05-05T00:36:19.560Z,600.00
2023-05-05T00:37:19.600Z,601.00
2023-05-05T00:38:19.759Z,601.00
2023-05-05T00:39:19.772Z,601.00
2023-05-05T00:40:19.802Z,601.00
2023-05-05T00:41:19.849Z,604.00
2023-05-05T00:42:19.940Z,603.00
2023-05-05T00:43:19.953Z,605.00
2023-05-05T00:44:20.020Z,607.00
2023-05-05T00:45:20.100Z,603.00
2023-05-05T00:46:20.208Z,605.00
2023-05-05T00:47:20.169Z,605.00
2023-05-05T00:48:20.217Z,605.00
2023-05-05T00:49:20.332Z,603.00
2023-05-05T00:50:20.359Z,602.00
2023-05-05T00:51:20.402Z,600.00
2023-05-05T00:52:20.429Z,600.00
2023-05-05T00:53:20.488Z,601.00
2023-05-05T00:54:20.507Z,602.00
2023-05-05T00:55:20.551Z,603.00
2023-05-05T00:56:20.567Z,603.00
2023-05-05T00:57:20.640Z,602.00
2023-05-05T00:58:20.622Z,603.00
2023-05-05T00:59:20.687Z,603.00
2023-05-05T01:00:20.713Z,603.00
2023-05-05T01:01:20.751Z,603.00
2023-05-05T01:02:20.744Z,606.00
2023-05-05T01:03:20.928Z,606.00
2023-05-05T01:04:20.931Z,606.00
2023-05-05T01:05:20.848Z,603.00
2023-05-05T01:06:20.938Z,602.00
2023-05-05T01:07:20.989Z,603.00
2023-05-05T01:08:20.977Z,602.00
2023-05-05T01:09:21.031Z,601.00
2023-05-05T01:10:21.166Z,600.00
2023-05-05T01:11:21.114Z,601.00
2023-05-05T01:12:21.105Z,601.00
2023-05-05T01:13:21.132Z,600.00
2023-05-05T01:14:21.142Z,601.00
2023-05-05T01:15:21.210Z,603.00
2023-05-05T01:16:21.270Z,601.00
2023-05-05T01:17:21.260Z,602.00
2023-05-05T01:18:21.343Z,603.00
2023-05-05T01:19:21.363Z,602.00
2023-05-05T01:20:21.376Z,601.00
2023-05-05T01:21:21.481Z,600.00
2023-05-05T01:22:21.533Z,600.00
2023-05-05T01:23:21.501Z,599.00
2023-05-05T01:24:21.514Z,600.00
2023-05-05T01:25:21.560Z,598.00
2023-05-05T01:26:21.561Z,597.00
2023-05-05T01:27:21.610Z,596.00
2023-05-05T01:28:21.665Z,599.00
2023-05-05T01:29:21.689Z,599.00
2023-05-05T01:30:21.747Z,600.00
2023-05-05T01:31:21.882Z,600.00
2023-05-05T01:32:21.834Z,603.00
2023-05-05T01:33:21.851Z,604.00
2023-05-05T01:34:21.869Z,602.00
2023-05-05T01:35:21.918Z,601.00
2023-05-05T01:36:21.929Z,600.00
2023-05-05T01:37:21.936Z,601.00
2023-05-05T01:38:21.961Z,601.00
2023-05-05T01:39:22.031Z,603.00
2023-05-05T01:40:22.034Z,603.00
2023-05-05T01:41:22.071Z,603.00
2023-05-05T01:42:22.109Z,603.00
2023-05-05T01:43:22.124Z,604.00
2023-05-05T01:44:22.151Z,602.00
2023-05-05T01:45:22.188Z,603.00
2023-05-05T01:46:22.383Z,604.00
2023-05-05T01:47:22.219Z,605.00
2023-05-05T01:48:22.258Z,604.00
2023-05-05T01:49:22.337Z,604.00
2023-05-05T01:50:22.352Z,604.00
2023-05-05T01:51:22.362Z,606.00
2023-05-05T01:52:22.395Z,605.00
2023-05-05T01:53:22.463Z,604.00
2023-05-05T01:54:22.463Z,602.00
2023-05-05T01:55:22.508Z,602.00
2023-05-05T01:56:22.518Z,602.00
2023-05-05T01:57:22.580Z,603.00
2023-05-05T01:58:22.593Z,600.00
2023-05-05T01:59:22.584Z,603.00
2023-05-05T02:00:22.607Z,604.00
2023-05-05T02:01:22.671Z,606.00
2023-05-05T02:02:22.711Z,607.00
2023-05-05T02:03:22.739Z,607.00
2023-05-05T02:04:22.766Z,605.00
2023-05-05T02:05:22.672Z,607.00
2023-05-05T02:06:22.696Z,606.00
2023-05-05T02:07:22.690Z,606.00
2023-05-05T02:08:22.656Z,606.00
2023-05-05T02:09:22.717Z,606.00
2023-05-05T02:10:22.694Z,606.00
2023-05-05T02:11:22.701Z,609.00
2023-05-05T02:12:22.716Z,609.00
2023-05-05T02:13:22.758Z,606.00
2023-05-05T02:14:22.754Z,608.00
2023-05-05T02:15:22.789Z,606.00
2023-05-05T02:16:22.771Z,606.00
2023-05-05T02:17:22.802Z,608.00
2023-05-05T02:18:22.782Z,608.00
2023-05-05T02:19:22.780Z,608.00
2023-05-05T02:20:22.783Z,609.00
2023-05-05T02:21:22.826Z,607.00
2023-05-05T02:22:22.831Z,605.00
2023-05-05T02:23:22.871Z,605.00
2023-05-05T02:24:22.868Z,608.00
2023-05-05T02:25:22.865Z,608.00
2023-05-05T02:26:22.884Z,609.00
2023-05-05T02:27:22.893Z,609.00
2023-05-05T02:28:22.899Z,607.00
2023-05-05T02:29:22.901Z,608.00
2023-05-05T02:30:22.902Z,608.00
2023-05-05T02:31:22.939Z,607.00
2023-05-05T02:32:22.964Z,609.00
2023-05-05T02:33:22.919Z,609.00
2023-05-05T02:34:22.904Z,609.00
2023-05-05T02:35:22.949Z,612.00
2023-05-05T02:36:22.941Z,609.00
2023-05-05T02:37:22.956Z,608.00
2023-05-05T02:38:22.963Z,607.00
2023-05-05T02:39:22.978Z,605.00
2023-05-05T02:40:22.974Z,603.00
2023-05-05T02:41:22.977Z,603.00
2023-05-05T02:42:22.990Z,602.00
2023-05-05T02:43:23.118Z,604.00
2023-05-05T02:44:23.020Z,605.00
2023-05-05T02:45:23.077Z,602.00
2023-05-05T02:46:23.156Z,600.00
2023-05-05T02:47:23.145Z,602.00
2023-05-05T02:48:23.103Z,605.00
2023-05-05T02:49:23.179Z,606.00
2023-05-05T02:50:23.168Z,610.00
2023-05-05T02:51:23.213Z,611.00
2023-05-05T02:52:23.214Z,611.00
2023-05-05T02:53:23.273Z,614.00
2023-05-05T02:54:23.273Z,614.00
2023-05-05T02:55:23.320Z,615.00
2023-05-05T02:56:23.323Z,615.00
2023-05-05T02:57:23.337Z,615.00
2023-05-05T02:58:23.425Z,616.00
2023-05-05T02:59:23.428Z,613.00
2023-05-05T03:00:23.510Z,612.00
2023-05-05T03:01:23.619Z,612.00
2023-05-05T03:02:23.696Z,611.00
2023-05-05T03:03:23.731Z,610.00
2023-05-05T03:04:23.726Z,612.00
2023-05-05T03:05:23.757Z,609.00
2023-05-05T03:06:23.849Z,608.00
2023-05-05T03:07:23.915Z,610.00
2023-05-05T03:08:23.943Z,614.00
2023-05-05T03:09:24.004Z,616.00
2023-05-05T03:10:24.046Z,615.00
2023-05-05T03:11:24.112Z,617.00
2023-05-05T03:12:24.136Z,616.00
2023-05-05T03:13:24.169Z,616.00
2023-05-05T03:14:24.188Z,616.00
2023-05-05T03:15:24.250Z,615.00
2023-05-05T03:16:24.363Z,614.00
2023-05-05T03:17:24.380Z,616.00
2023-05-05T03:18:24.400Z,615.00
2023-05-05T03:19:24.441Z,616.00
2023-05-05T03:20:24.524Z,615.00
2023-05-05T03:21:24.572Z,613.00
2023-05-05T03:22:24.581Z,611.00
2023-05-05T03:23:24.655Z,611.00
2023-05-05T03:24:24.699Z,614.00
2023-05-05T03:25:24.731Z,614.00
2023-05-05T03:26:24.751Z,614.00
2023-05-05T03:27:24.815Z,614.00
2023-05-05T03:28:24.877Z,615.00
2023-05-05T03:29:24.887Z,615.00
2023-05-05T03:30:24.963Z,614.00
2023-05-05T03:31:25.022Z,613.00
2023-05-05T03:32:25.094Z,614.00
2023-05-05T03:33:25.034Z,616.00
2023-05-05T03:34:25.090Z,616.00
2023-05-05T03:35:25.120Z,617.00
2023-05-05T03:36:26.677Z,620.00
2023-05-05T03:37:25.126Z,620.00
2023-05-05T03:38:25.148Z,620.00
2023-05-05T03:39:25.123Z,620.00
2023-05-05T03:40:32.686Z,621.00
2023-05-05T03:41:26.118Z,622.00
2023-05-05T03:42:25.108Z,623.00
2023-05-05T03:43:25.100Z,622.00
2023-05-05T03:44:25.090Z,624.00
2023-05-05T03:45:25.101Z,624.00
2023-05-05T03:46:25.103Z,625.00
2023-05-05T03:47:25.089Z,625.00
2023-05-05T03:48:25.038Z,623.00
2023-05-05T03:49:25.064Z,623.00
2023-05-05T03:50:25.048Z,622.00
2023-05-05T03:51:25.073Z,622.00
2023-05-05T03:52:25.032Z,621.00
2023-05-05T03:53:25.006Z,620.00
2023-05-05T03:54:25.045Z,622.00
2023-05-05T03:55:25.120Z,620.00
2023-05-05T03:56:25.097Z,618.00
2023-05-05T03:57:25.152Z,617.00
2023-05-05T03:58:25.177Z,618.00
2023-05-05T03:59:25.199Z,617.00
2023-05-05T04:00:25.254Z,617.00
2023-05-05T04:01:25.266Z,617.00
2023-05-05T04:02:25.405Z,618.00
2023-05-05T04:03:25.470Z,619.00
2023-05-05T04:04:25.438Z,617.00
2023-05-05T04:05:25.427Z,621.00
2023-05-05T04:06:25.460Z,619.00
2023-05-05T04:07:25.477Z,619.00
2023-05-05T04:08:25.545Z,619.00
2023-05-05T04:09:25.574Z,621.00
2023-05-05T04:10:25.613Z,622.00
2023-05-05T04:11:25.646Z,623.00
2023-05-05T04:12:25.695Z,622.00
2023-05-05T04:13:25.693Z,620.00
2023-05-05T04:14:25.721Z,621.00
2023-05-05T04:15:25.784Z,622.00
2023-05-05T04:16:25.899Z,623.00
2023-05-05T04:17:25.885Z,622.00
2023-05-05T04:18:25.855Z,620.00
2023-05-05T04:19:25.919Z,620.00
2023-05-05T04:20:25.949Z,623.00
2023-05-05T04:21:26.004Z,624.00
2023-05-05T04:22:25.991Z,623.00
2023-05-05T04:23:26.035Z,623.00
2023-05-05T04:24:26.048Z,623.00
2023-05-05T04:25:26.114Z,622.00
2023-05-05T04:26:26.157Z,623.00
2023-05-05T04:27:26.204Z,621.00
2023-05-05T04:28:26.201Z,621.00
2023-05-05T04:29:26.227Z,622.00
2023-05-05T04:30:26.250Z,620.00
2023-05-05T04:31:26.283Z,620.00
2023-05-05T04:32:26.370Z,620.00
2023-05-05T04:33:26.354Z,622.00
2023-05-05T04:34:26.370Z,622.00
2023-05-05T04:35:26.420Z,623.00
2023-05-05T04:36:26.485Z,623.00
2023-05-05T04:37:26.518Z,623.00
2023-05-05T04:38:26.614Z,625.00
2023-05-05T04:39:26.547Z,624.00
2023-05-05T04:40:26.582Z,627.00
2023-05-05T04:41:27.666Z,627.00
2023-05-05T04:42:26.677Z,627.00
2023-05-05T04:43:26.733Z,626.00
2023-05-05T04:44:26.803Z,627.00
2023-05-05T04:45:26.792Z,627.00
2023-05-05T04:46:26.885Z,628.00
2023-05-05T04:47:26.942Z,630.00
2023-05-05T04:48:26.917Z,631.00
2023-05-05T04:49:26.963Z,635.00
2023-05-05T04:50:27.014Z,638.00
2023-05-05T04:51:27.036Z,635.00
2023-05-05T04:52:27.094Z,633.00
2023-05-05T04:53:27.127Z,630.00
2023-05-05T04:54:27.205Z,626.00
2023-05-05T04:55:27.229Z,625.00
2023-05-05T04:56:27.291Z,627.00
2023-05-05T04:57:27.315Z,628.00
2023-05-05T04:58:27.343Z,627.00
2023-05-05T04:59:27.321Z,625.00
2023-05-05T05:00:27.326Z,627.00
2023-05-05T05:01:37.749Z,627.00
2023-05-05T05:02:27.399Z,627.00
2023-05-05T05:03:27.428Z,629.00
2023-05-05T05:04:27.361Z,629.00
2023-05-05T05:05:27.371Z,629.00
2023-05-05T05:06:27.324Z,631.00
2023-05-05T05:07:27.344Z,632.00
2023-05-05T05:08:27.319Z,633.00
2023-05-05T05:09:27.343Z,633.00
2023-05-05T05:10:27.383Z,633.00
2023-05-05T05:11:27.468Z,632.00
2023-05-05T05:12:27.508Z,630.00
2023-05-05T05:13:27.527Z,630.00
2023-05-05T05:14:27.562Z,629.00
2023-05-05T05:15:27.638Z,629.00
2023-05-05T05:16:27.706Z,629.00
2023-05-05T05:17:27.749Z,628.00
2023-05-05T05:18:27.743Z,629.00
2023-05-05T05:19:27.799Z,629.00
2023-05-05T05:20:27.878Z,630.00
2023-05-05T05:21:27.876Z,629.00
2023-05-05T05:22:27.933Z,631.00
2023-05-05T05:23:28.003Z,631.00
2023-05-05T05:24:28.026Z,628.00
2023-05-05T05:25:28.040Z,628.00
2023-05-05T05:26:28.070Z,628.00
2023-05-05T05:27:28.111Z,628.00
2023-05-05T05:28:28.175Z,629.00
2023-05-05T05:29:28.177Z,630.00
2023-05-05T05:30:28.263Z,632.00
2023-05-05T05:31:28.285Z,657.00
2023-05-05T05:32:28.400Z,677.00
2023-05-05T05:33:28.359Z,662.00
2023-05-05T05:34:28.428Z,659.00
2023-05-05T05:35:28.491Z,664.00
2023-05-05T05:36:28.606Z,670.00
2023-05-05T05:37:29.345Z,672.00
2023-05-05T05:38:28.605Z,683.00
2023-05-05T05:39:28.568Z,716.00
2023-05-05T05:40:28.584Z,701.00
2023-05-05T05:41:28.588Z,699.00
2023-05-05T05:42:28.901Z,707.00
2023-05-05T05:43:28.644Z,708.00
2023-05-05T05:44:28.665Z,714.00
2023-05-05T05:45:28.695Z,775.00
2023-05-05T05:46:36.283Z,759.00
2023-05-05T05:47:28.944Z,714.00
2023-05-05T05:48:28.728Z,719.00
2023-05-05T05:49:28.681Z,738.00
2023-05-05T05:50:28.774Z,792.00
2023-05-05T05:51:28.692Z,787.00
2023-05-05T05:52:29.401Z,797.00
2023-05-05T05:53:28.642Z,804.00
2023-05-05T05:54:28.687Z,811.00
2023-05-05T05:55:28.661Z,808.00
2023-05-05T05:56:28.628Z,795.00
2023-05-05T05:57:28.647Z,776.00
2023-05-05T05:58:28.602Z,772.00
2023-05-05T05:59:28.697Z,751.00
2023-05-05T06:00:28.595Z,741.00
2023-05-05T06:01:28.635Z,741.00
2023-05-05T06:02:28.772Z,743.00
2023-05-05T06:03:28.604Z,795.00
2023-05-05T06:04:28.632Z,775.00
2023-05-05T06:05:28.564Z,783.00
2023-05-05T06:06:28.599Z,794.00
2023-05-05T06:07:28.574Z,809.00
2023-05-05T06:08:28.542Z,812.00
2023-05-05T06:09:28.556Z,815.00
2023-05-05T06:10:28.718Z,822.00
2023-05-05T06:11:28.518Z,822.00
2023-05-05T06:12:28.535Z,825.00
2023-05-05T06:13:28.569Z,820.00
2023-05-05T06:14:28.669Z,806.00
2023-05-05T06:15:28.662Z,792.00
2023-05-05T06:16:28.772Z,790.00
2023-05-05T06:17:28.710Z,789.00
2023-05-05T06:18:28.750Z,785.00
2023-05-05T06:19:28.789Z,776.00
2023-05-05T06:20:28.818Z,770.00
2023-05-05T06:21:28.870Z,768.00
2023-05-05T06:22:28.942Z,762.00
2023-05-05T06:23:29.024Z,768.00
2023-05-05T06:24:29.051Z,783.00
2023-05-05T06:25:29.139Z,772.00
2023-05-05T06:26:29.165Z,820.00
2023-05-05T06:27:29.268Z,808.00
2023-05-05T06:28:29.285Z,799.00
2023-05-05T06:29:29.345Z,799.00
2023-05-05T06:30:29.441Z,796.00
2023-05-05T06:31:29.510Z,790.00
2023-05-05T06:32:29.528Z,790.00
2023-05-05T06:33:29.579Z,794.00
2023-05-05T06:34:29.630Z,796.00
2023-05-05T06:35:29.687Z,864.00
2023-05-05T06:36:29.784Z,844.00
2023-05-05T06:37:29.755Z,718.00
2023-05-05T06:38:29.903Z,709.00
2023-05-05T06:39:29.880Z,715.00
2023-05-05T06:40:29.926Z,778.00
2023-05-05T06:41:29.970Z,766.00
2023-05-05T06:42:30.011Z,725.00
2023-05-05T06:43:30.461Z,738.00
2023-05-05T06:44:29.959Z,763.00
2023-05-05T06:45:30.002Z,775.00
2023-05-05T06:46:30.119Z,786.00
2023-05-05T06:47:30.505Z,801.00
2023-05-05T06:48:30.059Z,808.00
2023-05-05T06:49:31.342Z,808.00
2023-05-05T06:50:30.257Z,808.00
2023-05-05T06:51:30.231Z,809.00
2023-05-05T06:52:30.254Z,826.00
2023-05-05T06:53:30.385Z,822.00
2023-05-05T06:54:30.332Z,829.00
2023-05-05T06:55:30.369Z,825.00
2023-05-05T06:56:30.378Z,875.00
2023-05-05T06:57:30.385Z,821.00
2023-05-05T06:58:30.439Z,845.00
2023-05-05T06:59:30.407Z,855.00
2023-05-05T07:00:30.447Z,850.00
2023-05-05T07:01:30.418Z,846.00
2023-05-05T07:02:30.427Z,840.00
2023-05-05T07:03:30.446Z,837.00
2023-05-05T07:04:30.435Z,855.00
2023-05-05T07:05:30.461Z,875.00
2023-05-05T07:06:30.571Z,883.00
2023-05-05T07:07:30.562Z,882.00
2023-05-05T07:08:30.629Z,907.00
2023-05-05T07:09:30.671Z,917.00
2023-05-05T07:10:30.741Z,914.00
2023-05-05T07:11:30.840Z,908.00
2023-05-05T07:12:30.885Z,917.00
2023-05-05T07:13:30.838Z,933.00
2023-05-05T07:14:31.099Z,941.00
2023-05-05T07:15:30.910Z,962.00
2023-05-05T07:16:31.043Z,985.00
2023-05-05T07:17:30.989Z,957.00
2023-05-05T07:18:31.964Z,958.00
2023-05-05T07:19:31.008Z,978.00
2023-05-05T07:20:31.067Z,1002.00
2023-05-05T07:21:31.069Z,1014.00
2023-05-05T07:22:31.065Z,1031.00
2023-05-05T07:23:31.522Z,1039.00
2023-05-05T07:24:31.101Z,1033.00
2023-05-05T07:25:31.132Z,1031.00
2023-05-05T07:26:31.093Z,1019.00
2023-05-05T07:27:31.473Z,1037.00
2023-05-05T07:28:31.125Z,1043.00
2023-05-05T07:29:31.092Z,1086.00
2023-05-05T07:30:31.155Z,1092.00
2023-05-05T07:31:31.122Z,1079.00
2023-05-05T07:32:31.121Z,1062.00
2023-05-05T07:33:31.458Z,1089.00
2023-05-05T07:34:31.122Z,1085.00
2023-05-05T07:35:31.125Z,957.00
2023-05-05T07:36:31.134Z,971.00
2023-05-05T07:37:31.088Z,912.00
2023-05-05T07:38:31.098Z,916.00
2023-05-05T07:39:31.146Z,989.00
2023-05-05T07:40:31.212Z,946.00
2023-05-05T07:41:31.237Z,852.00
2023-05-05T07:42:31.314Z,1006.00
2023-05-05T07:43:31.316Z,991.00
2023-05-05T07:44:31.313Z,995.00
2023-05-05T07:45:31.343Z,1006.00
2023-05-05T07:46:31.548Z,1006.00
2023-05-05T07:47:31.474Z,999.00
2023-05-05T07:48:31.344Z,1010.00
2023-05-05T07:49:31.366Z,1024.00
2023-05-05T07:50:31.377Z,1063.00
2023-05-05T07:51:32.630Z,1051.00
2023-05-05T07:52:45.074Z,1048.00
2023-05-05T07:53:32.367Z,1057.00
2023-05-05T07:54:31.312Z,1074.00
2023-05-05T07:55:31.325Z,1085.00
2023-05-05T07:56:31.370Z,987.00
2023-05-05T07:57:31.318Z,1052.00
2023-05-05T07:58:31.309Z,1076.00
2023-05-05T07:59:31.274Z,1067.00
2023-05-05T08:00:31.349Z,1076.00
2023-05-05T08:01:31.339Z,1007.00
2023-05-05T08:02:31.495Z,1050.00
2023-05-05T08:03:31.615Z,1059.00
2023-05-05T08:04:31.522Z,1070.00
2023-05-05T08:05:31.587Z,1081.00
2023-05-05T08:06:31.628Z,1088.00
2023-05-05T08:07:31.654Z,1100.00
2023-05-05T08:08:31.744Z,1102.00
2023-05-05T08:09:31.780Z,1084.00
2023-05-05T08:10:31.930Z,1077.00
2023-05-05T08:11:31.962Z,1080.00
2023-05-05T08:12:31.999Z,1086.00
2023-05-05T08:13:32.045Z,1061.00
2023-05-05T08:14:32.119Z,1080.00
2023-05-05T08:15:32.174Z,1078.00
2023-05-05T08:16:32.205Z,1085.00
2023-05-05T08:17:32.266Z,1092.00
2023-05-05T08:18:32.370Z,1096.00
2023-05-05T08:19:32.251Z,1107.00
2023-05-05T08:20:32.322Z,1123.00
2023-05-05T08:21:32.350Z,1137.00
2023-05-05T08:22:32.371Z,1195.00
2023-05-05T08:23:32.361Z,1200.00
2023-05-05T08:24:32.497Z,1212.00
2023-05-05T08:25:32.423Z,1253.00
2023-05-05T08:26:32.438Z,1275.00
2023-05-05T08:27:32.453Z,1285.00
2023-05-05T08:28:32.453Z,1296.00
2023-05-05T08:29:32.507Z,1300.00
2023-05-05T08:30:32.523Z,1305.00
2023-05-05T08:31:32.728Z,1318.00
2023-05-05T08:32:32.753Z,1327.00
2023-05-05T08:33:32.906Z,1331.00
2023-05-05T08:34:32.998Z,1345.00
2023-05-05T08:35:33.052Z,1342.00
2023-05-05T08:36:33.092Z,1269.00
2023-05-05T08:37:33.087Z,1164.00
2023-05-05T08:38:33.088Z,1155.00
2023-05-05T08:39:33.120Z,1036.00
2023-05-05T08:40:33.152Z,1009.00
2023-05-05T08:41:33.135Z,928.00
2023-05-05T08:42:37.299Z,904.00
2023-05-05T08:43:34.205Z,900.00
2023-05-05T08:44:33.184Z,883.00
2023-05-05T08:45:33.130Z,878.00
2023-05-05T08:46:33.157Z,818.00
2023-05-05T08:47:33.185Z,813.00
2023-05-05T08:48:33.139Z,863.00
2023-05-05T08:49:33.125Z,912.00
2023-05-05T08:50:33.239Z,904.00
2023-05-05T08:51:33.121Z,991.00
2023-05-05T08:52:33.133Z,948.00
2023-05-05T08:53:33.488Z,969.00
2023-05-05T08:54:33.187Z,968.00
2023-05-05T08:55:33.221Z,978.00
2023-05-05T08:56:33.306Z,982.00
2023-05-05T08:57:33.385Z,983.00
2023-05-05T08:58:33.370Z,982.00
2023-05-05T08:59:33.430Z,952.00
2023-05-05T09:00:33.453Z,942.00
2023-05-05T09:01:33.640Z,941.00
2023-05-05T09:02:33.650Z,915.00
2023-05-05T09:03:33.632Z,921.00
2023-05-05T09:04:33.729Z,935.00
2023-05-05T09:05:33.698Z,945.00
2023-05-05T09:06:33.912Z,1009.00
2023-05-05T09:07:33.783Z,1009.00
2023-05-05T09:08:34.125Z,1017.00
2023-05-05T09:09:33.833Z,1033.00
2023-05-05T09:10:33.875Z,1074.00
2023-05-05T09:11:34.166Z,1090.00
2023-05-05T09:12:33.948Z,1103.00
2023-05-05T09:13:34.129Z,1132.00
2023-05-05T09:14:34.180Z,1148.00
2023-05-05T09:15:34.168Z,1155.00
2023-05-05T09:16:34.187Z,1160.00
2023-05-05T09:17:34.191Z,1176.00
2023-05-05T09:18:34.200Z,1194.00
2023-05-05T09:19:34.177Z,1202.00
2023-05-05T09:20:34.221Z,1204.00
2023-05-05T09:21:34.197Z,1198.00
2023-05-05T09:22:34.216Z,1199.00
2023-05-05T09:23:34.315Z,1199.00
2023-05-05T09:24:34.320Z,1203.00
2023-05-05T09:25:34.235Z,1202.00
2023-05-05T09:26:34.297Z,1200.00
2023-05-05T09:27:34.358Z,1196.00
2023-05-05T09:28:34.312Z,1187.00
2023-05-05T09:29:34.371Z,1180.00
2023-05-05T09:30:34.321Z,1178.00
2023-05-05T09:31:34.374Z,1176.00
2023-05-05T09:32:34.529Z,1176.00
2023-05-05T09:33:34.987Z,1176.00
2023-05-05T09:34:34.456Z,1178.00
2023-05-05T09:35:34.482Z,1182.00
2023-05-05T09:36:34.463Z,1182.00
2023-05-05T09:37:34.476Z,1193.00
2023-05-05T09:38:34.613Z,1199.00
2023-05-05T09:39:34.538Z,1196.00
2023-05-05T09:40:34.603Z,1189.00
2023-05-05T09:41:34.627Z,1186.00
2023-05-05T09:42:34.650Z,1199.00
2023-05-05T09:43:35.057Z,1203.00
2023-05-05T09:44:34.784Z,1210.00
2023-05-05T09:45:34.900Z,1224.00
2023-05-05T09:46:34.940Z,1280.00
2023-05-05T09:47:35.312Z,1280.00
2023-05-05T09:48:35.089Z,1048.00
2023-05-05T09:49:35.070Z,1170.00
2023-05-05T09:50:35.226Z,1081.00
2023-05-05T09:51:35.164Z,1117.00
2023-05-05T09:52:35.225Z,1121.00
2023-05-05T09:53:35.356Z,1107.00
2023-05-05T09:54:35.413Z,1097.00
2023-05-05T09:55:35.349Z,1099.00
2023-05-05T09:56:35.369Z,1102.00
2023-05-05T09:57:35.464Z,1110.00
2023-05-05T09:58:35.585Z,1120.00
2023-05-05T09:59:35.596Z,1135.00
2023-05-05T10:00:36.759Z,1145.00
2023-05-05T10:01:35.713Z,1154.00
2023-05-05T10:02:35.796Z,1156.00
2023-05-05T10:03:35.895Z,1172.00
2023-05-05T10:04:36.082Z,1173.00
2023-05-05T10:05:35.974Z,1166.00
2023-05-05T10:06:36.052Z,1159.00
2023-05-05T10:07:36.077Z,1156.00
2023-05-05T10:08:36.161Z,1157.00
2023-05-05T10:09:36.190Z,1165.00
2023-05-05T10:10:36.248Z,1172.00
2023-05-05T10:11:36.244Z,1189.00
2023-05-05T10:12:36.284Z,1205.00
2023-05-05T10:13:36.311Z,1212.00
2023-05-05T10:14:36.337Z,1212.00
2023-05-05T10:15:36.370Z,1206.00
2023-05-05T10:16:36.485Z,1124.00
2023-05-05T10:17:36.518Z,1141.00
2023-05-05T10:18:36.521Z,1152.00
2023-05-05T10:19:36.607Z,1183.00
2023-05-05T10:20:36.642Z,1197.00
2023-05-05T10:21:36.663Z,1209.00
2023-05-05T10:22:36.659Z,1230.00
2023-05-05T10:23:36.692Z,1235.00
2023-05-05T10:24:36.745Z,1241.00
2023-05-05T10:25:36.772Z,1246.00
2023-05-05T10:26:37.039Z,1251.00
2023-05-05T10:27:36.914Z,1246.00
2023-05-05T10:28:36.899Z,1243.00
2023-05-05T10:29:37.074Z,1244.00
2023-05-05T10:30:36.984Z,1249.00
2023-05-05T10:31:37.056Z,1258.00
2023-05-05T10:33:38.244Z,1278.00
2023-05-05T10:34:37.071Z,1284.00
2023-05-05T10:35:37.009Z,1278.00
2023-05-05T10:36:36.998Z,1340.00
2023-05-05T10:37:37.017Z,931.00
2023-05-05T10:38:37.015Z,1153.00
2023-05-05T10:39:36.945Z,984.00
2023-05-05T10:40:36.962Z,1136.00
2023-05-05T10:41:36.985Z,1147.00
2023-05-05T10:42:37.008Z,896.00
2023-05-05T10:43:36.961Z,960.00
2023-05-05T10:44:36.945Z,787.00
2023-05-05T10:45:37.044Z,805.00
2023-05-05T10:46:37.193Z,810.00
2023-05-05T10:47:38.085Z,802.00
2023-05-05T10:48:37.212Z,801.00
2023-05-05T10:49:37.532Z,724.00
2023-05-05T10:50:37.234Z,762.00
2023-05-05T10:51:40.978Z,755.00
2023-05-05T10:52:37.342Z,745.00
2023-05-05T10:53:37.325Z,733.00
2023-05-05T10:54:38.309Z,721.00
2023-05-05T10:55:37.300Z,712.00
2023-05-05T10:56:37.287Z,705.00
2023-05-05T10:57:37.263Z,689.00
2023-05-05T10:58:50.981Z,676.00
2023-05-05T10:59:38.811Z,672.00
2023-05-05T11:00:37.229Z,675.00
2023-05-05T11:01:37.341Z,673.00
2023-05-05T11:02:37.294Z,673.00
2023-05-05T11:03:37.313Z,665.00
2023-05-05T11:04:37.234Z,655.00
2023-05-05T11:05:37.215Z,638.00
2023-05-05T11:06:37.218Z,620.00
2023-05-05T11:07:37.212Z,622.00
2023-05-05T11:08:37.181Z,628.00
2023-05-05T11:09:37.224Z,627.00
2023-05-05T11:10:37.196Z,626.00
2023-05-05T11:11:37.178Z,623.00
2023-05-05T11:12:38.872Z,617.00
2023-05-05T11:13:37.170Z,611.00
2023-05-05T11:14:37.246Z,608.00
2023-05-05T11:15:37.233Z,608.00
2023-05-05T11:16:37.314Z,608.00
2023-05-05T11:17:37.281Z,612.00
2023-05-05T11:18:37.267Z,616.00
2023-05-05T11:19:37.314Z,621.00
2023-05-05T11:20:37.434Z,621.00
2023-05-05T11:21:37.419Z,619.00
2023-05-05T11:22:37.421Z,619.00
2023-05-05T11:23:37.528Z,621.00
2023-05-05T11:24:37.484Z,623.00
2023-05-05T11:25:38.101Z,621.00
2023-05-05T11:26:37.621Z,621.00
2023-05-05T11:27:37.629Z,621.00
2023-05-05T11:28:37.656Z,620.00
2023-05-05T11:29:37.739Z,621.00
2023-05-05T11:30:37.831Z,620.00
2023-05-05T11:31:37.808Z,620.00
2023-05-05T11:32:37.828Z,619.00
2023-05-05T11:33:37.857Z,617.00
2023-05-05T11:34:38.079Z,614.00
2023-05-05T11:35:37.931Z,612.00
2023-05-05T11:36:38.020Z,611.00
2023-05-05T11:37:38.084Z,612.00
2023-05-05T11:38:38.144Z,613.00
2023-05-05T11:39:38.132Z,614.00
2023-05-05T11:40:38.153Z,614.00
2023-05-05T11:41:38.205Z,614.00
2023-05-05T11:42:38.232Z,614.00
2023-05-05T11:43:38.278Z,617.00
2023-05-05T11:44:38.296Z,619.00
2023-05-05T11:45:38.350Z,620.00
2023-05-05T11:46:38.608Z,620.00
2023-05-05T11:47:38.401Z,620.00
2023-05-05T11:48:38.400Z,620.00
2023-05-05T11:49:38.404Z,620.00
2023-05-05T11:50:38.417Z,620.00
2023-05-05T11:51:38.402Z,619.00
2023-05-05T11:52:38.395Z,617.00
2023-05-05T11:53:38.411Z,620.00
2023-05-05T11:54:38.510Z,621.00
2023-05-05T11:55:38.454Z,619.00
2023-05-05T11:56:38.460Z,617.00
2023-05-05T11:57:38.491Z,615.00
2023-05-05T11:58:38.474Z,616.00
2023-05-05T11:59:38.548Z,617.00
2023-05-05T12:00:38.609Z,617.00
2023-05-05T12:01:38.622Z,615.00
2023-05-05T12:02:39.212Z,615.00
2023-05-05T12:03:38.782Z,613.00
2023-05-05T12:04:38.605Z,610.00
2023-05-05T12:05:38.606Z,612.00
2023-05-05T12:06:38.655Z,615.00
2023-05-05T12:07:38.781Z,616.00
2023-05-05T12:08:38.763Z,610.00
2023-05-05T12:09:38.763Z,606.00
2023-05-05T12:10:38.799Z,604.00
2023-05-05T12:11:38.795Z,604.00
2023-05-05T12:12:38.837Z,602.00
2023-05-05T12:13:39.624Z,601.00
2023-05-05T12:14:38.863Z,602.00
2023-05-05T12:15:38.870Z,602.00
2023-05-05T12:16:38.921Z,604.00
2023-05-05T12:17:38.896Z,603.00
2023-05-05T12:18:38.938Z,602.00
2023-05-05T12:19:39.009Z,600.00
2023-05-05T12:20:39.037Z,600.00
2023-05-05T12:21:39.114Z,599.00
2023-05-05T12:22:39.118Z,597.00
2023-05-05T12:23:39.145Z,598.00
2023-05-05T12:24:39.139Z,597.00